Terminal Aerodrome Forecast
Issued by NWS

Home | Current Version | Previous Version | Text Only | Print | Product List | Glossary On
Versions: 1 2 3 4 5 6 7 8 9 10 11 12 13 14 15 16 17 18 19 20 21
000
FTUS44 KLZK 011400 AAA
TAFHRO
TAF AMD
KHRO 011409Z 0114/0212 VRB05KT 5SM BR OVC005
      TEMPO 0114/0116 2SM BR OVC002
     FM020600 VRB04KT 4SM BR BKN004 OVC007=

USA.gov is the U.S. government's official web portal to all federal, state and local government web resources and services.